sensor_id;sensor_type;location;lat;lon;timestamp;P1;durP1;ratioP1;P2;durP2;ratioP2
58896;SDS011;44677;52.378;10.400;2023-07-13T00:01:12;5.40;;;2.80;;
58896;SDS011;44677;52.378;10.400;2023-07-13T00:03:38;4.60;;;2.80;;
58896;SDS011;44677;52.378;10.400;2023-07-13T00:06:06;3.20;;;2.80;;
58896;SDS011;44677;52.378;10.400;2023-07-13T00:08:32;4.90;;;3.00;;
58896;SDS011;44677;52.378;10.400;2023-07-13T00:10:58;4.50;;;2.50;;
58896;SDS011;44677;52.378;10.400;2023-07-13T00:15:50;5.40;;;2.80;;
58896;SDS011;44677;52.378;10.400;2023-07-13T00:18:15;3.00;;;2.70;;
58896;SDS011;44677;52.378;10.400;2023-07-13T00:20:41;2.90;;;2.60;;
58896;SDS011;44677;52.378;10.400;2023-07-13T00:23:07;3.30;;;2.80;;
58896;SDS011;44677;52.378;10.400;2023-07-13T00:25:32;3.50;;;3.20;;
58896;SDS011;44677;52.378;10.400;2023-07-13T00:27:58;5.60;;;3.10;;
58896;SDS011;44677;52.378;10.400;2023-07-13T00:30:23;6.30;;;3.00;;
58896;SDS011;44677;52.378;10.400;2023-07-13T00:32:49;3.60;;;3.00;;
58896;SDS011;44677;52.378;10.400;2023-07-13T00:35:15;3.40;;;2.90;;
58896;SDS011;44677;52.378;10.400;2023-07-13T00:37:41;4.70;;;2.80;;
58896;SDS011;44677;52.378;10.400;2023-07-13T00:40:06;4.50;;;3.30;;
58896;SDS011;44677;52.378;10.400;2023-07-13T00:42:33;3.50;;;3.00;;
58896;SDS011;44677;52.378;10.400;2023-07-13T00:47:27;3.60;;;2.90;;
58896;SDS011;44677;52.378;10.400;2023-07-13T00:49:52;4.30;;;2.80;;
58896;SDS011;44677;52.378;10.400;2023-07-13T00:52:20;4.10;;;3.40;;
58896;SDS011;44677;52.378;10.400;2023-07-13T00:54:46;4.70;;;3.00;;
58896;SDS011;44677;52.378;10.400;2023-07-13T00:57:14;3.90;;;2.90;;
58896;SDS011;44677;52.378;10.400;2023-07-13T00:59:42;4.90;;;3.30;;
58896;SDS011;44677;52.378;10.400;2023-07-13T01:02:08;3.70;;;2.70;;
58896;SDS011;44677;52.378;10.400;2023-07-13T01:04:34;7.80;;;3.20;;
58896;SDS011;44677;52.378;10.400;2023-07-13T01:07:00;4.30;;;2.70;;
58896;SDS011;44677;52.378;10.400;2023-07-13T01:09:27;3.20;;;2.80;;
58896;SDS011;44677;52.378;10.400;2023-07-13T01:11:52;3.00;;;2.70;;
58896;SDS011;44677;52.378;10.400;2023-07-13T01:14:17;3.00;;;2.60;;
58896;SDS011;44677;52.378;10.400;2023-07-13T01:16:44;5.10;;;3.40;;
58896;SDS011;44677;52.378;10.400;2023-07-13T01:19:55;4.10;;;2.90;;
58896;SDS011;44677;52.378;10.400;2023-07-13T01:22:06;3.00;;;2.70;;
58896;SDS011;44677;52.378;10.400;2023-07-13T01:24:37;4.60;;;2.90;;
58896;SDS011;44677;52.378;10.400;2023-07-13T01:27:04;3.90;;;3.50;;
58896;SDS011;44677;52.378;10.400;2023-07-13T01:29:31;4.20;;;3.40;;
58896;SDS011;44677;52.378;10.400;2023-07-13T01:31:58;4.50;;;3.10;;
58896;SDS011;44677;52.378;10.400;2023-07-13T01:34:26;3.80;;;3.00;;
58896;SDS011;44677;52.378;10.400;2023-07-13T01:36:52;5.80;;;2.90;;
58896;SDS011;44677;52.378;10.400;2023-07-13T01:39:21;4.10;;;2.90;;
58896;SDS011;44677;52.378;10.400;2023-07-13T01:41:47;4.20;;;2.60;;
58896;SDS011;44677;52.378;10.400;2023-07-13T01:44:12;5.70;;;2.90;;
58896;SDS011;44677;52.378;10.400;2023-07-13T01:46:38;5.50;;;2.90;;
58896;SDS011;44677;52.378;10.400;2023-07-13T01:49:03;4.60;;;2.90;;
58896;SDS011;44677;52.378;10.400;2023-07-13T01:51:28;3.20;;;2.80;;
58896;SDS011;44677;52.378;10.400;2023-07-13T01:53:54;4.10;;;3.00;;
58896;SDS011;44677;52.378;10.400;2023-07-13T01:56:20;3.90;;;3.10;;
58896;SDS011;44677;52.378;10.400;2023-07-13T01:58:45;5.90;;;3.10;;
58896;SDS011;44677;52.378;10.400;2023-07-13T02:01:11;5.30;;;3.00;;
58896;SDS011;44677;52.378;10.400;2023-07-13T02:03:36;6.70;;;3.60;;
58896;SDS011;44677;52.378;10.400;2023-07-13T02:06:02;4.00;;;2.90;;
58896;SDS011;44677;52.378;10.400;2023-07-13T02:08:28;3.10;;;2.70;;
58896;SDS011;44677;52.378;10.400;2023-07-13T02:10:53;4.90;;;3.10;;
58896;SDS011;44677;52.378;10.400;2023-07-13T02:13:19;4.10;;;3.10;;
58896;SDS011;44677;52.378;10.400;2023-07-13T02:15:45;4.00;;;3.00;;
58896;SDS011;44677;52.378;10.400;2023-07-13T02:18:10;4.40;;;3.10;;
58896;SDS011;44677;52.378;10.400;2023-07-13T02:20:36;3.90;;;2.90;;
58896;SDS011;44677;52.378;10.400;2023-07-13T02:23:01;3.50;;;3.00;;
58896;SDS011;44677;52.378;10.400;2023-07-13T02:25:26;3.40;;;3.10;;
58896;SDS011;44677;52.378;10.400;2023-07-13T02:27:52;5.00;;;3.20;;
58896;SDS011;44677;52.378;10.400;2023-07-13T02:30:17;4.90;;;3.30;;
58896;SDS011;44677;52.378;10.400;2023-07-13T02:32:43;5.60;;;3.20;;
58896;SDS011;44677;52.378;10.400;2023-07-13T02:35:09;4.70;;;3.20;;
58896;SDS011;44677;52.378;10.400;2023-07-13T02:37:36;5.20;;;3.40;;
58896;SDS011;44677;52.378;10.400;2023-07-13T02:40:02;5.00;;;3.10;;
58896;SDS011;44677;52.378;10.400;2023-07-13T02:42:34;4.30;;;3.00;;
58896;SDS011;44677;52.378;10.400;2023-07-13T02:45:00;6.40;;;3.50;;
58896;SDS011;44677;52.378;10.400;2023-07-13T02:47:25;6.90;;;3.50;;
58896;SDS011;44677;52.378;10.400;2023-07-13T02:49:52;3.50;;;3.20;;
58896;SDS011;44677;52.378;10.400;2023-07-13T02:52:17;3.70;;;3.40;;
58896;SDS011;44677;52.378;10.400;2023-07-13T02:54:43;5.70;;;3.40;;
58896;SDS011;44677;52.378;10.400;2023-07-13T02:57:09;4.40;;;3.50;;
58896;SDS011;44677;52.378;10.400;2023-07-13T02:59:35;3.70;;;3.10;;
58896;SDS011;44677;52.378;10.400;2023-07-13T03:02:01;3.70;;;3.40;;
58896;SDS011;44677;52.378;10.400;2023-07-13T03:04:27;5.20;;;3.60;;
58896;SDS011;44677;52.378;10.400;2023-07-13T03:06:53;6.10;;;3.90;;
58896;SDS011;44677;52.378;10.400;2023-07-13T03:09:24;4.80;;;3.50;;
58896;SDS011;44677;52.378;10.400;2023-07-13T03:11:54;5.20;;;3.50;;
58896;SDS011;44677;52.378;10.400;2023-07-13T03:14:25;6.70;;;3.40;;
58896;SDS011;44677;52.378;10.400;2023-07-13T03:16:50;6.60;;;3.50;;
58896;SDS011;44677;52.378;10.400;2023-07-13T03:19:18;3.70;;;3.10;;
58896;SDS011;44677;52.378;10.400;2023-07-13T03:21:46;4.90;;;3.20;;
58896;SDS011;44677;52.378;10.400;2023-07-13T03:24:12;7.10;;;3.30;;
58896;SDS011;44677;52.378;10.400;2023-07-13T03:26:37;4.30;;;3.30;;
58896;SDS011;44677;52.378;10.400;2023-07-13T03:29:03;3.60;;;3.20;;
58896;SDS011;44677;52.378;10.400;2023-07-13T03:31:29;6.80;;;3.60;;
58896;SDS011;44677;52.378;10.400;2023-07-13T03:33:59;4.50;;;3.10;;
58896;SDS011;44677;52.378;10.400;2023-07-13T03:36:25;5.80;;;3.40;;
58896;SDS011;44677;52.378;10.400;2023-07-13T03:38:56;4.10;;;3.20;;
58896;SDS011;44677;52.378;10.400;2023-07-13T03:41:25;5.60;;;3.30;;
58896;SDS011;44677;52.378;10.400;2023-07-13T03:46:17;3.80;;;3.40;;
58896;SDS011;44677;52.378;10.400;2023-07-13T03:48:45;5.40;;;3.30;;
58896;SDS011;44677;52.378;10.400;2023-07-13T03:51:12;5.60;;;3.10;;
58896;SDS011;44677;52.378;10.400;2023-07-13T03:53:40;6.30;;;3.20;;
58896;SDS011;44677;52.378;10.400;2023-07-13T03:56:07;5.30;;;3.40;;
58896;SDS011;44677;52.378;10.400;2023-07-13T03:58:34;4.90;;;3.30;;
58896;SDS011;44677;52.378;10.400;2023-07-13T04:01:08;4.70;;;3.10;;
58896;SDS011;44677;52.378;10.400;2023-07-13T04:03:34;6.40;;;3.10;;
58896;SDS011;44677;52.378;10.400;2023-07-13T04:06:01;6.20;;;3.40;;
58896;SDS011;44677;52.378;10.400;2023-07-13T04:10:53;4.60;;;3.10;;
58896;SDS011;44677;52.378;10.400;2023-07-13T04:13:19;3.70;;;3.20;;
58896;SDS011;44677;52.378;10.400;2023-07-13T04:15:45;5.30;;;3.10;;
58896;SDS011;44677;52.378;10.400;2023-07-13T04:18:10;6.90;;;3.50;;
58896;SDS011;44677;52.378;10.400;2023-07-13T04:20:35;6.30;;;2.90;;
58896;SDS011;44677;52.378;10.400;2023-07-13T04:23:04;5.40;;;3.10;;
58896;SDS011;44677;52.378;10.400;2023-07-13T04:25:29;6.70;;;3.20;;
58896;SDS011;44677;52.378;10.400;2023-07-13T04:27:55;5.70;;;3.00;;
58896;SDS011;44677;52.378;10.400;2023-07-13T04:30:20;5.70;;;3.10;;
58896;SDS011;44677;52.378;10.400;2023-07-13T04:32:46;5.70;;;3.20;;
58896;SDS011;44677;52.378;10.400;2023-07-13T04:35:12;4.30;;;3.30;;
58896;SDS011;44677;52.378;10.400;2023-07-13T04:37:39;6.40;;;3.20;;
58896;SDS011;44677;52.378;10.400;2023-07-13T04:40:05;7.40;;;4.30;;
58896;SDS011;44677;52.378;10.400;2023-07-13T04:42:31;5.40;;;3.40;;
58896;SDS011;44677;52.378;10.400;2023-07-13T04:44:56;4.10;;;2.90;;
58896;SDS011;44677;52.378;10.400;2023-07-13T04:47:22;6.30;;;2.90;;
58896;SDS011;44677;52.378;10.400;2023-07-13T04:49:48;5.60;;;2.90;;
58896;SDS011;44677;52.378;10.400;2023-07-13T04:52:13;4.10;;;2.90;;
58896;SDS011;44677;52.378;10.400;2023-07-13T04:54:39;5.90;;;2.70;;
58896;SDS011;44677;52.378;10.400;2023-07-13T04:57:04;3.50;;;2.50;;
58896;SDS011;44677;52.378;10.400;2023-07-13T04:59:33;5.20;;;3.40;;
58896;SDS011;44677;52.378;10.400;2023-07-13T05:01:59;5.80;;;2.70;;
58896;SDS011;44677;52.378;10.400;2023-07-13T05:06:52;2.70;;;2.50;;
58896;SDS011;44677;52.378;10.400;2023-07-13T05:09:17;8.50;;;2.90;;
58896;SDS011;44677;52.378;10.400;2023-07-13T05:11:43;5.20;;;2.50;;
58896;SDS011;44677;52.378;10.400;2023-07-13T05:14:09;5.90;;;2.90;;
58896;SDS011;44677;52.378;10.400;2023-07-13T05:16:35;4.10;;;2.50;;
58896;SDS011;44677;52.378;10.400;2023-07-13T05:19:00;6.30;;;2.70;;
58896;SDS011;44677;52.378;10.400;2023-07-13T05:21:26;4.20;;;2.60;;
58896;SDS011;44677;52.378;10.400;2023-07-13T05:23:51;4.30;;;2.80;;
58896;SDS011;44677;52.378;10.400;2023-07-13T05:26:17;4.10;;;2.90;;
58896;SDS011;44677;52.378;10.400;2023-07-13T05:28:42;5.30;;;2.70;;
58896;SDS011;44677;52.378;10.400;2023-07-13T05:31:08;7.70;;;2.90;;
58896;SDS011;44677;52.378;10.400;2023-07-13T05:33:34;7.30;;;3.00;;
58896;SDS011;44677;52.378;10.400;2023-07-13T05:36:00;5.70;;;3.10;;
58896;SDS011;44677;52.378;10.400;2023-07-13T05:38:26;4.00;;;2.40;;
58896;SDS011;44677;52.378;10.400;2023-07-13T05:40:53;3.70;;;2.40;;
58896;SDS011;44677;52.378;10.400;2023-07-13T05:43:20;4.70;;;2.50;;
58896;SDS011;44677;52.378;10.400;2023-07-13T05:45:45;3.40;;;2.50;;
58896;SDS011;44677;52.378;10.400;2023-07-13T05:48:11;3.60;;;2.60;;
58896;SDS011;44677;52.378;10.400;2023-07-13T05:50:36;4.60;;;2.70;;
58896;SDS011;44677;52.378;10.400;2023-07-13T05:53:02;4.50;;;2.80;;
58896;SDS011;44677;52.378;10.400;2023-07-13T05:55:27;6.40;;;2.60;;
58896;SDS011;44677;52.378;10.400;2023-07-13T05:57:52;7.00;;;2.80;;
58896;SDS011;44677;52.378;10.400;2023-07-13T06:00:18;6.70;;;2.50;;
58896;SDS011;44677;52.378;10.400;2023-07-13T06:02:44;4.90;;;2.50;;
58896;SDS011;44677;52.378;10.400;2023-07-13T06:05:09;6.90;;;3.00;;
58896;SDS011;44677;52.378;10.400;2023-07-13T06:07:34;6.60;;;2.50;;
58896;SDS011;44677;52.378;10.400;2023-07-13T06:10:00;6.50;;;2.80;;
58896;SDS011;44677;52.378;10.400;2023-07-13T06:12:26;4.60;;;2.50;;
58896;SDS011;44677;52.378;10.400;2023-07-13T06:14:52;6.30;;;2.60;;
58896;SDS011;44677;52.378;10.400;2023-07-13T06:17:17;6.30;;;2.60;;
58896;SDS011;44677;52.378;10.400;2023-07-13T06:19:43;6.90;;;2.70;;
58896;SDS011;44677;52.378;10.400;2023-07-13T06:22:09;6.50;;;2.60;;
58896;SDS011;44677;52.378;10.400;2023-07-13T06:24:34;11.10;;;2.70;;
58896;SDS011;44677;52.378;10.400;2023-07-13T06:27:00;6.00;;;2.50;;
58896;SDS011;44677;52.378;10.400;2023-07-13T06:29:25;4.90;;;2.20;;
58896;SDS011;44677;52.378;10.400;2023-07-13T06:31:51;6.20;;;2.10;;
58896;SDS011;44677;52.378;10.400;2023-07-13T06:34:16;5.80;;;2.70;;
58896;SDS011;44677;52.378;10.400;2023-07-13T06:36:41;4.80;;;2.10;;
58896;SDS011;44677;52.378;10.400;2023-07-13T06:39:07;7.70;;;2.50;;
58896;SDS011;44677;52.378;10.400;2023-07-13T06:41:32;5.40;;;1.90;;
58896;SDS011;44677;52.378;10.400;2023-07-13T06:43:58;4.30;;;2.00;;
58896;SDS011;44677;52.378;10.400;2023-07-13T06:46:24;6.20;;;2.20;;
58896;SDS011;44677;52.378;10.400;2023-07-13T06:48:49;9.90;;;2.30;;
58896;SDS011;44677;52.378;10.400;2023-07-13T06:51:15;6.80;;;2.30;;
58896;SDS011;44677;52.378;10.400;2023-07-13T06:53:40;12.50;;;2.30;;
58896;SDS011;44677;52.378;10.400;2023-07-13T06:56:07;8.50;;;2.30;;
58896;SDS011;44677;52.378;10.400;2023-07-13T06:58:33;8.40;;;2.40;;
58896;SDS011;44677;52.378;10.400;2023-07-13T07:00:59;12.40;;;2.60;;
58896;SDS011;44677;52.378;10.400;2023-07-13T07:03:24;6.90;;;2.40;;
58896;SDS011;44677;52.378;10.400;2023-07-13T07:05:50;9.70;;;2.20;;
58896;SDS011;44677;52.378;10.400;2023-07-13T07:08:15;8.50;;;2.70;;
58896;SDS011;44677;52.378;10.400;2023-07-13T07:10:40;7.60;;;2.60;;
58896;SDS011;44677;52.378;10.400;2023-07-13T07:13:06;6.20;;;2.70;;
58896;SDS011;44677;52.378;10.400;2023-07-13T07:15:31;8.20;;;2.70;;
58896;SDS011;44677;52.378;10.400;2023-07-13T07:17:57;7.40;;;2.70;;
58896;SDS011;44677;52.378;10.400;2023-07-13T07:20:22;6.00;;;2.40;;
58896;SDS011;44677;52.378;10.400;2023-07-13T07:22:48;5.40;;;2.60;;
58896;SDS011;44677;52.378;10.400;2023-07-13T07:25:13;4.80;;;2.30;;
58896;SDS011;44677;52.378;10.400;2023-07-13T07:27:40;6.00;;;2.10;;
58896;SDS011;44677;52.378;10.400;2023-07-13T07:30:05;6.20;;;2.40;;
58896;SDS011;44677;52.378;10.400;2023-07-13T07:32:31;6.70;;;2.40;;
58896;SDS011;44677;52.378;10.400;2023-07-13T07:34:57;5.50;;;2.40;;
58896;SDS011;44677;52.378;10.400;2023-07-13T07:37:23;4.60;;;2.20;;
58896;SDS011;44677;52.378;10.400;2023-07-13T07:39:49;5.40;;;2.30;;
58896;SDS011;44677;52.378;10.400;2023-07-13T07:42:14;5.10;;;2.30;;
58896;SDS011;44677;52.378;10.400;2023-07-13T07:44:40;5.30;;;2.00;;
58896;SDS011;44677;52.378;10.400;2023-07-13T07:47:06;4.10;;;1.90;;
58896;SDS011;44677;52.378;10.400;2023-07-13T07:49:32;6.60;;;2.00;;
58896;SDS011;44677;52.378;10.400;2023-07-13T07:51:57;5.70;;;2.80;;
58896;SDS011;44677;52.378;10.400;2023-07-13T07:54:22;7.10;;;2.30;;
58896;SDS011;44677;52.378;10.400;2023-07-13T07:56:48;4.40;;;2.30;;
58896;SDS011;44677;52.378;10.400;2023-07-13T07:59:13;7.50;;;2.10;;
58896;SDS011;44677;52.378;10.400;2023-07-13T08:01:39;4.50;;;2.00;;
58896;SDS011;44677;52.378;10.400;2023-07-13T08:04:04;5.90;;;2.30;;
58896;SDS011;44677;52.378;10.400;2023-07-13T08:06:31;5.80;;;2.40;;
58896;SDS011;44677;52.378;10.400;2023-07-13T08:08:58;3.50;;;2.30;;
58896;SDS011;44677;52.378;10.400;2023-07-13T08:11:24;6.80;;;2.30;;
58896;SDS011;44677;52.378;10.400;2023-07-13T08:13:50;5.90;;;2.30;;
58896;SDS011;44677;52.378;10.400;2023-07-13T08:16:15;6.90;;;2.10;;
58896;SDS011;44677;52.378;10.400;2023-07-13T08:18:41;6.30;;;2.00;;
58896;SDS011;44677;52.378;10.400;2023-07-13T08:21:07;4.50;;;2.60;;
58896;SDS011;44677;52.378;10.400;2023-07-13T08:23:34;9.00;;;2.50;;
58896;SDS011;44677;52.378;10.400;2023-07-13T08:26:00;6.40;;;2.30;;
58896;SDS011;44677;52.378;10.400;2023-07-13T08:28:29;3.80;;;1.80;;
58896;SDS011;44677;52.378;10.400;2023-07-13T08:30:59;4.60;;;1.90;;
58896;SDS011;44677;52.378;10.400;2023-07-13T08:33:26;3.90;;;2.00;;
58896;SDS011;44677;52.378;10.400;2023-07-13T08:35:51;5.30;;;2.00;;
58896;SDS011;44677;52.378;10.400;2023-07-13T08:38:16;3.70;;;1.90;;
58896;SDS011;44677;52.378;10.400;2023-07-13T08:40:43;3.80;;;2.10;;
58896;SDS011;44677;52.378;10.400;2023-07-13T08:43:13;4.30;;;2.00;;
58896;SDS011;44677;52.378;10.400;2023-07-13T08:45:43;4.50;;;2.00;;
58896;SDS011;44677;52.378;10.400;2023-07-13T08:48:11;6.00;;;2.00;;
58896;SDS011;44677;52.378;10.400;2023-07-13T08:50:49;4.90;;;2.10;;
58896;SDS011;44677;52.378;10.400;2023-07-13T08:53:19;4.40;;;1.90;;
58896;SDS011;44677;52.378;10.400;2023-07-13T08:55:44;6.90;;;2.00;;
58896;SDS011;44677;52.378;10.400;2023-07-13T08:58:13;5.20;;;2.30;;
58896;SDS011;44677;52.378;10.400;2023-07-13T09:00:52;7.40;;;2.50;;
58896;SDS011;44677;52.378;10.400;2023-07-13T09:03:43;3.60;;;1.90;;
58896;SDS011;44677;52.378;10.400;2023-07-13T09:06:15;3.80;;;1.80;;
58896;SDS011;44677;52.378;10.400;2023-07-13T09:08:59;2.70;;;1.70;;
58896;SDS011;44677;52.378;10.400;2023-07-13T09:11:42;2.80;;;1.70;;
58896;SDS011;44677;52.378;10.400;2023-07-13T09:17:01;3.40;;;1.70;;
58896;SDS011;44677;52.378;10.400;2023-07-13T09:19:30;4.60;;;1.70;;
58896;SDS011;44677;52.378;10.400;2023-07-13T09:21:57;4.40;;;2.10;;
58896;SDS011;44677;52.378;10.400;2023-07-13T09:27:14;6.00;;;1.80;;
58896;SDS011;44677;52.378;10.400;2023-07-13T09:29:55;3.70;;;1.80;;
58896;SDS011;44677;52.378;10.400;2023-07-13T09:32:24;4.70;;;1.60;;
58896;SDS011;44677;52.378;10.400;2023-07-13T09:37:23;5.20;;;1.90;;
58896;SDS011;44677;52.378;10.400;2023-07-13T09:39:54;5.50;;;1.80;;
58896;SDS011;44677;52.378;10.400;2023-07-13T09:42:21;3.00;;;1.70;;
58896;SDS011;44677;52.378;10.400;2023-07-13T09:47:21;3.30;;;1.90;;
58896;SDS011;44677;52.378;10.400;2023-07-13T09:49:53;5.10;;;2.00;;
58896;SDS011;44677;52.378;10.400;2023-07-13T09:52:20;3.60;;;1.80;;
58896;SDS011;44677;52.378;10.400;2023-07-13T09:54:48;4.40;;;2.00;;
58896;SDS011;44677;52.378;10.400;2023-07-13T09:57:16;5.00;;;2.00;;
58896;SDS011;44677;52.378;10.400;2023-07-13T09:59:45;4.40;;;1.50;;
58896;SDS011;44677;52.378;10.400;2023-07-13T10:07:52;4.90;;;1.80;;
58896;SDS011;44677;52.378;10.400;2023-07-13T10:10:21;5.10;;;1.80;;
58896;SDS011;44677;52.378;10.400;2023-07-13T10:12:48;5.70;;;2.10;;
58896;SDS011;44677;52.378;10.400;2023-07-13T10:15:15;3.00;;;1.90;;
58896;SDS011;44677;52.378;10.400;2023-07-13T10:17:46;3.90;;;1.90;;
58896;SDS011;44677;52.378;10.400;2023-07-13T10:20:11;3.10;;;1.70;;
58896;SDS011;44677;52.378;10.400;2023-07-13T10:25:24;3.40;;;2.40;;
58896;SDS011;44677;52.378;10.400;2023-07-13T10:27:53;3.40;;;1.70;;
58896;SDS011;44677;52.378;10.400;2023-07-13T10:30:21;4.20;;;1.70;;
58896;SDS011;44677;52.378;10.400;2023-07-13T10:32:50;4.10;;;1.90;;
58896;SDS011;44677;52.378;10.400;2023-07-13T10:35:18;3.30;;;1.90;;
58896;SDS011;44677;52.378;10.400;2023-07-13T10:37:47;4.50;;;1.90;;
58896;SDS011;44677;52.378;10.400;2023-07-13T10:40:19;4.80;;;1.90;;
58896;SDS011;44677;52.378;10.400;2023-07-13T10:42:49;6.10;;;2.10;;
58896;SDS011;44677;52.378;10.400;2023-07-13T10:45:17;4.00;;;1.80;;
58896;SDS011;44677;52.378;10.400;2023-07-13T10:47:44;3.90;;;1.60;;
58896;SDS011;44677;52.378;10.400;2023-07-13T10:50:20;4.90;;;1.80;;
58896;SDS011;44677;52.378;10.400;2023-07-13T10:52:51;3.20;;;1.50;;
58896;SDS011;44677;52.378;10.400;2023-07-13T10:55:32;4.80;;;1.60;;
58896;SDS011;44677;52.378;10.400;2023-07-13T10:58:11;3.10;;;1.70;;
58896;SDS011;44677;52.378;10.400;2023-07-13T11:00:49;3.40;;;1.70;;
58896;SDS011;44677;52.378;10.400;2023-07-13T11:03:19;6.20;;;1.80;;
58896;SDS011;44677;52.378;10.400;2023-07-13T11:05:48;5.30;;;2.20;;
58896;SDS011;44677;52.378;10.400;2023-07-13T11:08:33;3.90;;;1.70;;
58896;SDS011;44677;52.378;10.400;2023-07-13T11:11:02;5.60;;;2.20;;
58896;SDS011;44677;52.378;10.400;2023-07-13T11:16:59;3.50;;;1.60;;
58896;SDS011;44677;52.378;10.400;2023-07-13T11:21:27;5.00;;;1.90;;
58896;SDS011;44677;52.378;10.400;2023-07-13T11:24:13;2.20;;;1.70;;
58896;SDS011;44677;52.378;10.400;2023-07-13T11:26:50;4.70;;;1.80;;
58896;SDS011;44677;52.378;10.400;2023-07-13T11:29:32;6.80;;;1.70;;
58896;SDS011;44677;52.378;10.400;2023-07-13T11:32:15;4.30;;;1.50;;
58896;SDS011;44677;52.378;10.400;2023-07-13T11:34:51;4.30;;;1.70;;
58896;SDS011;44677;52.378;10.400;2023-07-13T11:37:18;2.20;;;1.30;;
58896;SDS011;44677;52.378;10.400;2023-07-13T11:39:44;4.80;;;2.00;;
58896;SDS011;44677;52.378;10.400;2023-07-13T11:42:12;3.60;;;1.50;;
58896;SDS011;44677;52.378;10.400;2023-07-13T11:44:43;3.10;;;1.50;;
58896;SDS011;44677;52.378;10.400;2023-07-13T11:47:11;3.10;;;1.40;;
58896;SDS011;44677;52.378;10.400;2023-07-13T11:49:44;4.40;;;1.50;;
58896;SDS011;44677;52.378;10.400;2023-07-13T11:52:21;3.60;;;1.40;;
58896;SDS011;44677;52.378;10.400;2023-07-13T11:54:50;4.30;;;1.30;;
58896;SDS011;44677;52.378;10.400;2023-07-13T11:57:27;6.50;;;1.40;;
58896;SDS011;44677;52.378;10.400;2023-07-13T11:59:59;4.10;;;1.50;;
58896;SDS011;44677;52.378;10.400;2023-07-13T12:04:59;5.80;;;1.70;;
58896;SDS011;44677;52.378;10.400;2023-07-13T12:07:25;2.50;;;1.40;;
58896;SDS011;44677;52.378;10.400;2023-07-13T12:10:03;8.30;;;2.20;;
58896;SDS011;44677;52.378;10.400;2023-07-13T12:12:51;4.40;;;1.60;;
58896;SDS011;44677;52.378;10.400;2023-07-13T12:15:37;5.00;;;1.50;;
58896;SDS011;44677;52.378;10.400;2023-07-13T12:18:12;3.80;;;1.70;;
58896;SDS011;44677;52.378;10.400;2023-07-13T12:20:39;1.90;;;1.30;;
58896;SDS011;44677;52.378;10.400;2023-07-13T12:23:05;4.50;;;1.70;;
58896;SDS011;44677;52.378;10.400;2023-07-13T12:25:46;3.30;;;1.70;;
58896;SDS011;44677;52.378;10.400;2023-07-13T12:28:22;1.70;;;1.30;;
58896;SDS011;44677;52.378;10.400;2023-07-13T12:30:59;2.50;;;1.40;;
58896;SDS011;44677;52.378;10.400;2023-07-13T12:33:29;2.90;;;1.40;;
58896;SDS011;44677;52.378;10.400;2023-07-13T12:36:00;3.10;;;1.60;;
58896;SDS011;44677;52.378;10.400;2023-07-13T12:38:28;3.20;;;1.40;;
58896;SDS011;44677;52.378;10.400;2023-07-13T12:40:54;3.30;;;1.50;;
58896;SDS011;44677;52.378;10.400;2023-07-13T12:43:20;2.40;;;1.50;;
58896;SDS011;44677;52.378;10.400;2023-07-13T12:46:04;4.50;;;1.70;;
58896;SDS011;44677;52.378;10.400;2023-07-13T12:48:37;2.60;;;1.60;;
58896;SDS011;44677;52.378;10.400;2023-07-13T12:51:04;2.60;;;1.60;;
58896;SDS011;44677;52.378;10.400;2023-07-13T12:53:29;2.80;;;1.50;;
58896;SDS011;44677;52.378;10.400;2023-07-13T12:55:59;1.80;;;1.30;;
58896;SDS011;44677;52.378;10.400;2023-07-13T12:58:37;2.40;;;1.90;;
58896;SDS011;44677;52.378;10.400;2023-07-13T13:01:04;2.10;;;1.30;;
58896;SDS011;44677;52.378;10.400;2023-07-13T13:03:38;7.60;;;2.10;;
58896;SDS011;44677;52.378;10.400;2023-07-13T13:08:40;3.40;;;1.80;;
58896;SDS011;44677;52.378;10.400;2023-07-13T13:11:08;2.80;;;1.70;;
58896;SDS011;44677;52.378;10.400;2023-07-13T13:16:43;5.20;;;2.00;;
58896;SDS011;44677;52.378;10.400;2023-07-13T13:18:52;2.30;;;1.90;;
58896;SDS011;44677;52.378;10.400;2023-07-13T13:21:18;5.80;;;2.00;;
58896;SDS011;44677;52.378;10.400;2023-07-13T13:23:44;3.20;;;1.80;;
58896;SDS011;44677;52.378;10.400;2023-07-13T13:26:11;2.60;;;1.80;;
58896;SDS011;44677;52.378;10.400;2023-07-13T13:28:38;2.40;;;1.40;;
